Time;durP1;ratioP1;P1;durP2;ratioP2;P2;SDS_P1;SDS_P2;PMS_P1;PMS_P2;Temp;Humidity;BMP_temperature;BMP_pressure;BME280_temperature;BME280_humidity;BME280_pressure;Samples;Min_cycle;Max_cycle;Signal;HPM_P1;HPM_P2
2022/01/19 00:00:08;;;;;;;5.47;4.70;;;;;;;;;;4862945;29;20144;-85
2022/01/19 00:02:40;;;;;;;5.05;3.47;;;;;;;;;;4862186;29;20411;-85
2022/01/19 00:05:09;;;;;;;7.72;2.63;;;;;;;;;;4860184;29;20673;-84
2022/01/19 00:07:37;;;;;;;7.40;2.80;;;;;;;;;;4852405;29;20046;-84
2022/01/19 00:10:09;;;;;;;3.42;3.17;;;;;;;;;;4853384;29;20058;-85
2022/01/19 00:12:37;;;;;;;;;;;;;;;;;;4853909;29;20482;-85
2022/01/19 00:15:06;;;;;;;5.80;2.70;;;;;;;;;;4852825;29;20381;-85
2022/01/19 00:17:34;;;;;;;20.23;4.53;;;;;;;;;;4864496;29;20088;-85
2022/01/19 00:20:03;;;;;;;6.63;3.53;;;;;;;;;;4862032;29;20045;-85
2022/01/19 00:22:31;;;;;;;8.90;3.65;;;;;;;;;;4836466;29;20060;-85
2022/01/19 00:24:59;;;;;;;4.30;4.00;;;;;;;;;;4854372;29;20052;-84
2022/01/19 00:27:28;;;;;;;6.97;4.53;;;;;;;;;;4853827;29;20057;-85
2022/01/19 00:29:56;;;;;;;4.80;3.58;;;;;;;;;;4867688;29;20053;-85
2022/01/19 00:32:26;;;;;;;6.88;3.80;;;;;;;;;;4861486;29;20077;-85
2022/01/19 00:34:54;;;;;;;3.53;2.67;;;;;;;;;;4855475;29;20053;-85
2022/01/19 00:37:23;;;;;;;5.32;2.95;;;;;;;;;;4854158;29;20057;-84
2022/01/19 00:39:51;;;;;;;3.70;3.45;;;;;;;;;;4871621;29;20056;-84
2022/01/19 00:42:20;;;;;;;7.75;4.60;;;;;;;;;;4855899;29;20057;-84
2022/01/19 00:44:48;;;;;;;7.72;4.40;;;;;;;;;;4868270;29;20053;-85
2022/01/19 00:47:17;;;;;;;6.88;4.30;;;;;;;;;;4853472;29;20056;-84
2022/01/19 00:49:48;;;;;;;3.80;2.65;;;;;;;;;;4836441;29;20056;-85
2022/01/19 00:52:16;;;;;;;7.07;5.05;;;;;;;;;;4851526;29;20423;-85
2022/01/19 00:54:44;;;;;;;7.65;3.60;;;;;;;;;;4852243;29;20060;-85
2022/01/19 00:57:13;;;;;;;4.75;4.10;;;;;;;;;;4880749;29;20072;-84
2022/01/19 00:59:41;;;;;;;5.70;4.70;;;;;;;;;;4860604;29;20753;-85
2022/01/19 01:02:09;;;;;;;4.45;4.10;;;;;;;;;;4863992;29;20042;-84
2022/01/19 01:04:41;;;;;;;6.90;4.30;;;;;;;;;;4863654;29;20037;-84
2022/01/19 01:07:09;;;;;;;6.57;4.10;;;;;;;;;;4840608;29;20065;-84
2022/01/19 01:09:37;;;;;;;5.13;4.40;;;;;;;;;;4852806;29;20056;-85
2022/01/19 01:12:11;;;;;;;4.13;3.58;;;;;;;;;;4851925;29;20523;-84
2022/01/19 01:20:15;;;;;;;2.90;2.72;;;;;;;;;;4852990;29;20053;-84
2022/01/19 01:22:45;;;;;;;2.22;2.13;;;;;;;;;;4852549;29;20057;-85
2022/01/19 01:25:13;;;;;;;3.08;2.78;;;;;;;;;;4852804;29;20057;-85
2022/01/19 01:27:41;;;;;;;4.05;3.17;;;;;;;;;;4850480;29;20058;-84
2022/01/19 01:30:10;;;;;;;5.15;4.53;;;;;;;;;;4867256;29;20053;-85
2022/01/19 01:32:38;;;;;;;5.40;4.03;;;;;;;;;;4851554;29;20057;-85
2022/01/19 01:35:06;;;;;;;6.97;3.55;;;;;;;;;;4835610;29;20057;-84
2022/01/19 01:37:34;;;;;;;3.35;2.95;;;;;;;;;;4851340;29;20060;-85
2022/01/19 01:40:04;;;;;;;4.53;3.88;;;;;;;;;;4877377;29;20522;-84
2022/01/19 01:42:33;;;;;;;12.82;3.25;;;;;;;;;;4854004;29;20053;-84
2022/01/19 01:45:02;;;;;;;3.35;3.05;;;;;;;;;;4885108;29;20056;-85
2022/01/19 01:47:33;;;;;;;5.72;3.92;;;;;;;;;;4854233;29;20150;-84
2022/01/19 01:55:21;;;;;;;3.15;2.85;;;;;;;;;;4870213;29;20064;-84
2022/01/19 01:57:50;;;;;;;4.30;3.83;;;;;;;;;;4852921;29;20064;-84
2022/01/19 02:00:20;;;;;;;11.57;6.40;;;;;;;;;;4854035;29;20053;-84
2022/01/19 02:02:50;;;;;;;5.90;3.50;;;;;;;;;;4839684;29;20064;-84
2022/01/19 02:05:23;;;;;;;2.63;2.45;;;;;;;;;;4872047;29;20060;-84
2022/01/19 02:10:59;;;;;;;3.40;2.72;;;;;;;;;;4853646;29;20093;-84
2022/01/19 02:16:31;;;;;;;10.27;8.20;;;;;;;;;;4839150;29;20468;-83
2022/01/19 02:22:02;;;;;;;5.95;5.45;;;;;;;;;;4852678;29;20054;-84
2022/01/19 02:24:41;;;;;;;10.10;3.90;;;;;;;;;;4853949;29;20049;-83
2022/01/19 02:28:56;;;;;;;8.10;4.80;;;;;;;;;;4838502;29;20049;-84
2022/01/19 02:41:08;;;;;;;5.38;4.97;;;;;;;;;;4837281;29;20057;-84
2022/01/19 02:43:36;;;;;;;9.63;6.53;;;;;;;;;;4836783;29;20062;-84
2022/01/19 02:51:38;;;;;;;3.88;3.33;;;;;;;;;;4820506;29;20061;-84
2022/01/19 02:54:06;;;;;;;4.88;4.30;;;;;;;;;;4836079;29;20054;-84
2022/01/19 02:56:38;;;;;;;5.28;4.88;;;;;;;;;;4855813;29;20045;-84
2022/01/19 02:59:18;;;;;;;6.95;4.32;;;;;;;;;;4872451;29;20045;-84
2022/01/19 03:10:08;;;;;;;4.90;4.47;;;;;;;;;;4872105;29;20053;-83
2022/01/19 03:12:36;;;;;;;11.50;5.13;;;;;;;;;;4858279;29;20488;-79
2022/01/19 03:15:08;;;;;;;9.63;4.50;;;;;;;;;;4849307;29;20698;-83
2022/01/19 03:17:35;;;;;;;7.82;5.63;;;;;;;;;;4878772;29;20050;-83
2022/01/19 03:20:05;;;;;;;17.45;11.32;;;;;;;;;;4856685;29;20068;-84
2022/01/19 03:23:20;;;;;;;8.35;7.03;;;;;;;;;;4872719;29;20053;-83
2022/01/19 03:25:21;;;;;;;5.55;4.78;;;;;;;;;;4862747;29;20558;-83
2022/01/19 03:27:49;;;;;;;7.22;6.45;;;;;;;;;;4853021;29;20058;-83
2022/01/19 03:30:21;;;;;;;4.70;4.10;;;;;;;;;;4870259;29;20519;-83
2022/01/19 03:32:49;;;;;;;4.93;4.07;;;;;;;;;;4868976;29;20053;-83
2022/01/19 03:35:17;;;;;;;6.80;6.00;;;;;;;;;;4864541;29;20061;-84
2022/01/19 03:37:46;;;;;;;10.02;5.95;;;;;;;;;;4885164;29;20053;-83
2022/01/19 03:40:14;;;;;;;7.90;5.25;;;;;;;;;;4859468;29;20061;-83
2022/01/19 03:43:00;;;;;;;7.55;5.90;;;;;;;;;;4853330;29;20069;-83
2022/01/19 03:46:42;;;;;;;6.63;5.95;;;;;;;;;;4852143;29;20475;-83
2022/01/19 03:50:00;;;;;;;6.20;4.88;;;;;;;;;;4857450;29;20056;-84
2022/01/19 03:53:01;;;;;;;6.72;5.47;;;;;;;;;;4876881;29;20054;-84
2022/01/19 03:55:29;;;;;;;5.15;4.80;;;;;;;;;;4869186;29;20064;-84
2022/01/19 03:57:57;;;;;;;7.07;4.80;;;;;;;;;;4875339;29;20060;-83
2022/01/19 04:00:26;;;;;;;9.65;5.88;;;;;;;;;;4873018;29;20063;-83
2022/01/19 04:02:54;;;;;;;5.07;4.68;;;;;;;;;;4873173;29;20244;-83
2022/01/19 04:05:37;;;;;;;7.30;4.63;;;;;;;;;;4886912;29;20049;-83
2022/01/19 04:08:05;;;;;;;7.63;4.65;;;;;;;;;;4872220;29;20075;-83
2022/01/19 04:10:33;;;;;;;19.13;5.38;;;;;;;;;;4867067;29;20057;-83
2022/01/19 04:13:25;;;;;;;6.72;6.10;;;;;;;;;;4864146;29;20080;-83
2022/01/19 04:15:53;;;;;;;8.23;5.63;;;;;;;;;;4844086;29;20050;-83
2022/01/19 04:18:21;;;;;;;11.15;7.50;;;;;;;;;;4868012;29;20503;-83
2022/01/19 04:20:52;;;;;;;10.70;4.82;;;;;;;;;;4852795;29;20053;-83
2022/01/19 04:23:24;;;;;;;6.75;6.00;;;;;;;;;;4833464;29;20057;-83
2022/01/19 04:25:52;;;;;;;7.88;6.28;;;;;;;;;;4835842;29;20054;-83
2022/01/19 04:28:21;;;;;;;7.28;6.20;;;;;;;;;;4832782;29;20049;-84
2022/01/19 04:30:55;;;;;;;11.70;5.82;;;;;;;;;;4849468;29;20058;-83
2022/01/19 04:33:26;;;;;;;12.32;5.80;;;;;;;;;;4849375;29;20416;-83
2022/01/19 04:36:07;;;;;;;6.07;4.68;;;;;;;;;;4849200;29;20050;-83
2022/01/19 04:47:25;;;;;;;6.90;5.45;;;;;;;;;;4855420;29;20060;-83
2022/01/19 05:03:58;;;;;;;11.75;7.63;;;;;;;;;;4854318;29;20053;-83
2022/01/19 05:06:43;;;;;;;8.00;6.75;;;;;;;;;;4871792;29;20059;-83
2022/01/19 05:09:53;;;;;;;11.80;6.80;;;;;;;;;;4885101;29;20143;-82
2022/01/19 05:15:06;;;;;;;11.05;8.35;;;;;;;;;;4870403;29;20053;-83
2022/01/19 05:17:39;;;;;;;11.95;7.85;;;;;;;;;;4868967;29;20495;-82
2022/01/19 05:20:08;;;;;;;10.85;7.97;;;;;;;;;;4885343;29;20053;-83
2022/01/19 05:22:37;;;;;;;12.55;8.98;;;;;;;;;;4885197;29;20052;-83
2022/01/19 05:25:11;;;;;;;15.63;9.23;;;;;;;;;;4884891;29;20057;-83
2022/01/19 05:27:48;;;;;;;12.73;9.30;;;;;;;;;;4870600;29;20052;-83
2022/01/19 05:30:17;;;;;;;14.73;10.02;;;;;;;;;;4885651;29;20127;-81
2022/01/19 05:32:46;;;;;;;19.20;7.60;;;;;;;;;;4883902;29;20288;-81
2022/01/19 05:35:15;;;;;;;14.05;8.57;;;;;;;;;;4884656;29;20072;-80
2022/01/19 05:37:49;;;;;;;14.45;8.57;;;;;;;;;;4872126;29;20049;-81
2022/01/19 05:40:32;;;;;;;12.90;9.15;;;;;;;;;;4863187;29;20060;-81
2022/01/19 05:43:02;;;;;;;11.75;6.38;;;;;;;;;;4853425;29;20046;-81
2022/01/19 05:45:30;;;;;;;26.48;10.90;;;;;;;;;;4831736;29;20050;-81
2022/01/19 05:48:10;;;;;;;21.20;13.32;;;;;;;;;;4843423;29;20714;-80
2022/01/19 05:50:42;;;;;;;14.85;10.60;;;;;;;;;;4873640;29;20060;-84
2022/01/19 05:53:15;;;;;;;16.77;9.00;;;;;;;;;;4865639;29;20049;-82
2022/01/19 05:55:43;;;;;;;13.57;7.70;;;;;;;;;;4883989;29;20041;-82
2022/01/19 05:58:12;;;;;;;21.35;10.20;;;;;;;;;;4853308;29;20056;-83
2022/01/19 06:00:41;;;;;;;20.27;12.45;;;;;;;;;;4879637;29;20063;-83
2022/01/19 06:03:12;;;;;;;20.20;11.95;;;;;;;;;;4884234;29;20427;-83
2022/01/19 06:06:18;;;;;;;28.58;9.35;;;;;;;;;;4828409;29;20049;-81
2022/01/19 06:09:09;;;;;;;30.15;11.23;;;;;;;;;;4855761;29;20049;-82
2022/01/19 06:11:38;;;;;;;17.17;10.20;;;;;;;;;;4848733;29;20058;-82
2022/01/19 06:14:07;;;;;;;15.38;8.93;;;;;;;;;;4844250;29;20057;-81
2022/01/19 06:16:35;;;;;;;16.65;9.98;;;;;;;;;;4837204;29;20887;-81
2022/01/19 06:19:03;;;;;;;14.25;10.77;;;;;;;;;;4840146;29;20084;-81
2022/01/19 06:21:31;;;;;;;13.35;8.93;;;;;;;;;;4837057;29;20074;-82
2022/01/19 06:23:59;;;;;;;25.80;11.93;;;;;;;;;;4869823;29;20048;-83
2022/01/19 06:26:27;;;;;;;16.45;9.05;;;;;;;;;;4884634;29;20053;-84
2022/01/19 06:28:56;;;;;;;14.25;8.05;;;;;;;;;;4882917;29;20076;-83
2022/01/19 06:31:24;;;;;;;17.92;9.93;;;;;;;;;;4868728;29;20491;-83
2022/01/19 06:33:55;;;;;;;14.80;8.32;;;;;;;;;;4884285;29;20068;-83
2022/01/19 06:36:35;;;;;;;19.90;9.77;;;;;;;;;;4883684;29;20061;-82
2022/01/19 06:39:08;;;;;;;19.70;11.70;;;;;;;;;;4883496;29;20052;-82
2022/01/19 06:41:43;;;;;;;18.98;12.70;;;;;;;;;;4884545;29;20064;-82
2022/01/19 06:44:13;;;;;;;15.52;10.57;;;;;;;;;;4871989;29;20069;-82
2022/01/19 06:46:45;;;;;;;35.92;13.38;;;;;;;;;;4867762;29;20049;-83
2022/01/19 06:49:14;;;;;;;15.35;10.52;;;;;;;;;;4866442;29;20049;-84
2022/01/19 06:51:42;;;;;;;15.85;10.52;;;;;;;;;;4868552;29;20046;-84
2022/01/19 06:54:10;;;;;;;20.15;10.13;;;;;;;;;;4868448;29;20100;-82
2022/01/19 06:56:39;;;;;;;16.00;8.98;;;;;;;;;;4879078;29;20057;-83
2022/01/19 06:59:33;;;;;;;15.65;9.02;;;;;;;;;;4886369;29;20466;-83
2022/01/19 07:02:24;;;;;;;17.30;9.80;;;;;;;;;;4871000;29;20049;-84
2022/01/19 07:04:57;;;;;;;26.60;11.23;;;;;;;;;;4885014;29;20045;-83
2022/01/19 07:07:56;;;;;;;20.30;10.15;;;;;;;;;;4876579;29;20517;-78
2022/01/19 07:10:24;;;;;;;18.38;10.95;;;;;;;;;;4875213;29;20053;-79
2022/01/19 07:12:52;;;;;;;15.18;10.52;;;;;;;;;;4853200;29;20064;-78
2022/01/19 07:15:21;;;;;;;20.08;12.35;;;;;;;;;;4852580;29;20490;-84
2022/01/19 07:17:50;;;;;;;21.15;10.38;;;;;;;;;;4868239;29;20871;-78
2022/01/19 07:20:19;;;;;;;17.48;11.65;;;;;;;;;;4854006;29;20045;-78
2022/01/19 07:22:48;;;;;;;16.92;11.98;;;;;;;;;;4861692;29;20053;-80
2022/01/19 07:25:17;;;;;;;13.80;9.85;;;;;;;;;;4853529;29;20054;-78
2022/01/19 07:27:45;;;;;;;9.93;7.72;;;;;;;;;;4848471;29;20057;-77
2022/01/19 07:30:14;;;;;;;12.88;10.00;;;;;;;;;;4849843;29;20054;-77
2022/01/19 07:32:44;;;;;;;17.88;9.98;;;;;;;;;;4857240;29;20060;-77
2022/01/19 07:35:14;;;;;;;15.35;9.43;;;;;;;;;;4866998;29;20049;-78
2022/01/19 07:37:43;;;;;;;12.63;8.52;;;;;;;;;;4855448;29;20233;-78
2022/01/19 07:40:13;;;;;;;16.92;11.27;;;;;;;;;;4878933;29;20713;-78
2022/01/19 07:42:42;;;;;;;14.30;8.80;;;;;;;;;;4879926;29;20049;-78
2022/01/19 07:45:37;;;;;;;19.63;11.10;;;;;;;;;;4842401;29;20061;-78
2022/01/19 07:48:17;;;;;;;13.30;9.55;;;;;;;;;;4856133;29;20586;-78
2022/01/19 07:50:59;;;;;;;16.00;9.77;;;;;;;;;;4852360;29;20060;-78
2022/01/19 07:53:44;;;;;;;12.13;8.73;;;;;;;;;;4836522;29;20068;-78
2022/01/19 07:56:30;;;;;;;16.17;8.27;;;;;;;;;;4861975;29;20495;-78
2022/01/19 07:59:07;;;;;;;13.23;9.25;;;;;;;;;;4842707;29;20054;-79
2022/01/19 08:01:57;;;;;;;16.05;9.68;;;;;;;;;;4856420;29;20072;-78
2022/01/19 08:04:34;;;;;;;16.95;10.07;;;;;;;;;;4852685;29;20053;-79
2022/01/19 08:07:02;;;;;;;14.82;8.32;;;;;;;;;;4867373;29;20064;-78
2022/01/19 08:09:31;;;;;;;16.70;7.40;;;;;;;;;;4835858;29;20606;-78
2022/01/19 08:11:59;;;;;;;15.35;8.13;;;;;;;;;;4851607;29;20049;-78
2022/01/19 08:14:29;;;;;;;13.85;8.13;;;;;;;;;;4867418;29;20068;-78
2022/01/19 08:16:58;;;;;;;12.80;8.88;;;;;;;;;;4867362;29;20072;-80
2022/01/19 08:19:33;;;;;;;22.95;10.52;;;;;;;;;;4866773;29;20424;-79
2022/01/19 08:22:02;;;;;;;18.90;7.68;;;;;;;;;;4867211;29;20061;-78
2022/01/19 08:24:31;;;;;;;14.27;9.15;;;;;;;;;;4863219;29;20495;-80
2022/01/19 08:27:06;;;;;;;15.63;8.90;;;;;;;;;;4855539;29;20053;-80
2022/01/19 08:29:40;;;;;;;11.80;7.65;;;;;;;;;;4842259;29;20061;-80
2022/01/19 08:32:30;;;;;;;13.77;8.48;;;;;;;;;;4850990;29;20812;-79
2022/01/19 08:35:33;;;;;;;17.35;9.48;;;;;;;;;;4865614;29;20060;-79
2022/01/19 08:38:20;;;;;;;13.40;8.80;;;;;;;;;;4852592;29;20060;-80
2022/01/19 08:41:05;;;;;;;15.57;10.30;;;;;;;;;;4854265;29;20527;-78
2022/01/19 08:43:34;;;;;;;21.05;9.60;;;;;;;;;;4880023;29;20071;-78
2022/01/19 08:46:02;;;;;;;16.73;10.02;;;;;;;;;;4873828;29;20907;-77
2022/01/19 08:48:57;;;;;;;20.40;11.57;;;;;;;;;;4852645;29;20052;-77
2022/01/19 08:51:43;;;;;;;14.43;9.68;;;;;;;;;;4851066;29;20042;-78
2022/01/19 08:54:25;;;;;;;22.80;11.20;;;;;;;;;;4865446;29;20054;-78
2022/01/19 08:57:00;;;;;;;18.00;10.68;;;;;;;;;;4879143;29;20438;-78
2022/01/19 08:59:31;;;;;;;18.73;8.95;;;;;;;;;;4868684;29;20139;-77
2022/01/19 09:02:04;;;;;;;15.68;8.80;;;;;;;;;;4846848;29;20053;-77
2022/01/19 09:04:33;;;;;;;16.38;10.90;;;;;;;;;;4834283;29;20046;-78
2022/01/19 09:07:01;;;;;;;17.33;10.05;;;;;;;;;;4834318;29;20053;-77
2022/01/19 09:09:29;;;;;;;13.68;9.50;;;;;;;;;;4846185;29;20061;-78
2022/01/19 09:11:58;;;;;;;16.65;8.00;;;;;;;;;;4833574;29;20054;-78
2022/01/19 09:14:26;;;;;;;12.45;8.95;;;;;;;;;;4833986;29;20057;-78
2022/01/19 09:16:54;;;;;;;12.63;8.55;;;;;;;;;;4835397;29;20046;-78
2022/01/19 09:19:23;;;;;;;14.82;10.32;;;;;;;;;;4850011;29;20053;-78
2022/01/19 09:21:51;;;;;;;16.70;10.77;;;;;;;;;;4851398;29;20598;-78
2022/01/19 09:24:20;;;;;;;12.60;9.23;;;;;;;;;;4852586;29;20065;-79
2022/01/19 09:26:49;;;;;;;14.48;9.27;;;;;;;;;;4853345;29;20084;-78
2022/01/19 09:29:21;;;;;;;13.48;8.75;;;;;;;;;;4851605;29;20056;-79
2022/01/19 09:31:49;;;;;;;15.00;9.95;;;;;;;;;;4835656;29;20049;-79
2022/01/19 09:34:20;;;;;;;21.33;12.20;;;;;;;;;;4852835;29;20468;-79
2022/01/19 09:36:48;;;;;;;20.37;9.63;;;;;;;;;;4860475;29;20053;-79
2022/01/19 09:39:18;;;;;;;20.33;10.18;;;;;;;;;;4872783;29;20407;-79
2022/01/19 09:41:48;;;;;;;15.68;10.32;;;;;;;;;;4857572;29;20049;-77
2022/01/19 09:44:17;;;;;;;15.07;9.35;;;;;;;;;;4859544;29;20078;-79
2022/01/19 09:46:46;;;;;;;17.33;11.02;;;;;;;;;;4853214;29;20526;-79
2022/01/19 09:49:17;;;;;;;18.17;10.07;;;;;;;;;;4858190;29;20048;-79
2022/01/19 09:51:46;;;;;;;14.25;9.05;;;;;;;;;;4851799;29;20056;-78
2022/01/19 09:54:22;;;;;;;14.38;9.27;;;;;;;;;;4852585;29;20049;-79
2022/01/19 09:56:50;;;;;;;11.32;8.43;;;;;;;;;;4863887;29;20056;-80
2022/01/19 09:59:19;;;;;;;15.73;9.45;;;;;;;;;;4866871;29;20436;-77
2022/01/19 10:01:57;;;;;;;15.38;11.55;;;;;;;;;;4871055;29;20057;-82
2022/01/19 10:04:27;;;;;;;12.98;9.93;;;;;;;;;;4869840;29;20570;-80
2022/01/19 10:07:10;;;;;;;13.88;7.60;;;;;;;;;;4870833;29;20057;-81
2022/01/19 10:09:53;;;;;;;13.68;10.27;;;;;;;;;;4819951;29;20050;-79
2022/01/19 10:18:14;;;;;;;14.18;9.65;;;;;;;;;;4852173;29;20411;-79
2022/01/19 10:20:43;;;;;;;16.33;9.40;;;;;;;;;;4852655;29;20065;-80
2022/01/19 10:23:33;;;;;;;16.85;10.35;;;;;;;;;;4838581;29;20068;-80
2022/01/19 10:26:01;;;;;;;14.52;10.63;;;;;;;;;;4838824;29;20077;-80
2022/01/19 10:28:29;;;;;;;15.82;10.23;;;;;;;;;;4854480;29;20060;-79
2022/01/19 10:31:01;;;;;;;16.13;9.55;;;;;;;;;;4855890;29;20053;-80
2022/01/19 10:33:29;;;;;;;13.75;9.05;;;;;;;;;;4855179;29;20056;-80
2022/01/19 10:35:58;;;;;;;15.15;11.52;;;;;;;;;;4855395;29;20076;-80
2022/01/19 10:38:28;;;;;;;15.00;9.93;;;;;;;;;;4855301;29;20057;-81
2022/01/19 10:41:02;;;;;;;12.52;9.23;;;;;;;;;;4864958;29;20060;-81
2022/01/19 10:43:30;;;;;;;13.20;10.82;;;;;;;;;;4849155;29;20515;-82
2022/01/19 10:46:18;;;;;;;29.15;12.60;;;;;;;;;;4849727;29;20483;-80
2022/01/19 10:48:46;;;;;;;16.70;9.07;;;;;;;;;;4852648;29;20053;-78
2022/01/19 10:51:19;;;;;;;17.20;11.75;;;;;;;;;;4836851;29;20053;-78
2022/01/19 10:53:48;;;;;;;13.88;9.70;;;;;;;;;;4864477;29;20056;-78
2022/01/19 10:56:24;;;;;;;17.10;9.85;;;;;;;;;;4887731;29;20122;-79
2022/01/19 10:58:56;;;;;;;21.63;13.82;;;;;;;;;;4871992;29;20080;-78
2022/01/19 11:01:39;;;;;;;15.65;11.10;;;;;;;;;;4873817;29;20108;-78
2022/01/19 11:04:25;;;;;;;17.10;11.07;;;;;;;;;;4873170;29;20056;-79
2022/01/19 11:07:15;;;;;;;17.15;10.73;;;;;;;;;;4887628;29;20411;-79
2022/01/19 11:10:00;;;;;;;15.77;11.93;;;;;;;;;;4867734;29;20053;-79
2022/01/19 11:12:45;;;;;;;15.82;11.25;;;;;;;;;;4849031;29;20046;-80
2022/01/19 11:15:17;;;;;;;23.38;16.23;;;;;;;;;;4868114;29;20056;-78
2022/01/19 11:17:46;;;;;;;;;;;;;;;;;;4846702;29;20057;-79
2022/01/19 11:20:19;;;;;;;18.83;12.90;;;;;;;;;;4851774;29;19928;-79
2022/01/19 11:23:08;;;;;;;12.77;9.40;;;;;;;;;;4851145;29;20058;-80
2022/01/19 11:25:43;;;;;;;11.27;7.13;;;;;;;;;;4860983;29;20056;-79
2022/01/19 11:28:25;;;;;;;15.50;10.05;;;;;;;;;;4863011;29;20045;-78
2022/01/19 11:30:54;;;;;;;16.67;9.90;;;;;;;;;;4863616;29;20692;-79
2022/01/19 11:33:25;;;;;;;15.70;11.65;;;;;;;;;;4871881;29;20063;-78
2022/01/19 11:36:05;;;;;;;10.15;8.70;;;;;;;;;;4858924;29;20057;-78
2022/01/19 11:38:40;;;;;;;12.55;10.18;;;;;;;;;;4859163;29;20057;-77
2022/01/19 11:41:10;;;;;;;19.17;12.40;;;;;;;;;;4856254;29;20053;-77
2022/01/19 11:43:48;;;;;;;14.27;11.70;;;;;;;;;;4863172;29;20057;-78
2022/01/19 11:46:39;;;;;;;13.10;11.10;;;;;;;;;;4853574;29;20041;-78
2022/01/19 11:49:09;;;;;;;18.00;15.30;;;;;;;;;;4850749;29;20408;-78
2022/01/19 11:51:42;;;;;;;16.50;10.38;;;;;;;;;;4850622;29;20053;-78
2022/01/19 11:54:19;;;;;;;17.70;9.63;;;;;;;;;;4868930;29;20046;-78
2022/01/19 11:57:00;;;;;;;16.77;12.05;;;;;;;;;;4865592;29;20495;-78
2022/01/19 11:59:35;;;;;;;22.15;17.90;;;;;;;;;;4857162;29;20057;-79
2022/01/19 12:02:26;;;;;;;10.85;7.95;;;;;;;;;;4852419;29;20049;-79
2022/01/19 12:05:14;;;;;;;10.40;8.00;;;;;;;;;;4859347;29;20622;-78
2022/01/19 12:07:48;;;;;;;10.23;8.48;;;;;;;;;;4835887;29;20132;-78
2022/01/19 12:10:22;;;;;;;13.68;9.05;;;;;;;;;;4838803;29;20908;-78
2022/01/19 12:13:10;;;;;;;15.75;7.68;;;;;;;;;;4853751;29;20042;-79
2022/01/19 12:15:52;;;;;;;14.70;10.50;;;;;;;;;;4852882;29;20053;-78
2022/01/19 12:18:39;;;;;;;18.20;10.30;;;;;;;;;;4854564;29;20385;-78
2022/01/19 12:21:08;;;;;;;13.95;9.70;;;;;;;;;;4853871;29;20862;-79
2022/01/19 12:23:37;;;;;;;14.23;8.80;;;;;;;;;;4854229;29;20058;-80
2022/01/19 12:26:10;;;;;;;15.07;8.70;;;;;;;;;;4853192;29;20058;-79
2022/01/19 12:28:48;;;;;;;10.63;7.80;;;;;;;;;;4846701;29;20068;-79
2022/01/19 12:31:25;;;;;;;13.07;8.23;;;;;;;;;;4847464;29;20046;-80
2022/01/19 12:34:09;;;;;;;15.68;8.13;;;;;;;;;;4845822;29;20480;-78
2022/01/19 12:36:47;;;;;;;7.97;6.90;;;;;;;;;;4848308;29;20056;-80
2022/01/19 12:39:35;;;;;;;12.88;8.65;;;;;;;;;;4849842;29;20058;-80
2022/01/19 12:42:07;;;;;;;13.90;10.90;;;;;;;;;;4847949;29;20061;-79
2022/01/19 12:44:35;;;;;;;10.90;7.93;;;;;;;;;;4868371;29;20053;-80
2022/01/19 12:47:04;;;;;;;9.52;7.05;;;;;;;;;;4882716;29;20049;-81
2022/01/19 12:49:35;;;;;;;15.50;10.60;;;;;;;;;;4846597;29;20058;-79
2022/01/19 12:52:14;;;;;;;9.48;7.50;;;;;;;;;;4847354;29;20046;-79
2022/01/19 12:54:42;;;;;;;13.70;9.18;;;;;;;;;;4838588;29;20086;-80
2022/01/19 12:57:15;;;;;;;7.32;6.45;;;;;;;;;;4838462;29;20049;-80
2022/01/19 12:59:45;;;;;;;10.57;7.38;;;;;;;;;;4867541;29;20060;-79
2022/01/19 13:02:15;;;;;;;11.35;6.07;;;;;;;;;;4886782;29;20052;-79
2022/01/19 13:04:46;;;;;;;7.15;4.97;;;;;;;;;;4871903;29;20045;-80
2022/01/19 13:07:23;;;;;;;8.73;5.43;;;;;;;;;;4871608;29;20053;-80
2022/01/19 13:12:49;;;;;;;6.82;4.65;;;;;;;;;;4846723;29;20561;-80
2022/01/19 13:15:17;;;;;;;5.60;4.50;;;;;;;;;;4849026;29;20515;-79
2022/01/19 13:17:47;;;;;;;5.90;4.25;;;;;;;;;;4847025;29;20054;-79
2022/01/19 13:20:17;;;;;;;8.60;4.70;;;;;;;;;;4841738;29;20061;-79
2022/01/19 13:22:55;;;;;;;5.03;4.38;;;;;;;;;;4845754;29;20049;-81
2022/01/19 13:25:27;;;;;;;6.57;5.07;;;;;;;;;;4852694;29;20089;-79
2022/01/19 13:27:57;;;;;;;5.60;4.93;;;;;;;;;;4850654;29;20078;-79
2022/01/19 13:30:26;;;;;;;5.63;4.70;;;;;;;;;;4853097;29;20068;-79
2022/01/19 13:32:55;;;;;;;7.78;5.80;;;;;;;;;;4852667;29;20053;-80
2022/01/19 13:35:25;;;;;;;8.80;6.22;;;;;;;;;;4853166;29;20053;-81
2022/01/19 13:37:55;;;;;;;11.10;5.95;;;;;;;;;;4846478;29;20618;-82
2022/01/19 13:40:25;;;;;;;8.80;5.78;;;;;;;;;;4832923;29;20053;-82
2022/01/19 13:43:01;;;;;;;7.50;6.15;;;;;;;;;;4852462;29;20377;-82
2022/01/19 13:45:37;;;;;;;7.82;5.90;;;;;;;;;;4869454;29;20053;-83
2022/01/19 13:50:52;;;;;;;6.65;5.70;;;;;;;;;;4871598;29;20076;-82
2022/01/19 13:53:38;;;;;;;6.35;4.53;;;;;;;;;;4849441;29;20057;-81
2022/01/19 13:56:10;;;;;;;12.75;5.78;;;;;;;;;;4853312;29;20059;-81
2022/01/19 13:58:41;;;;;;;9.00;6.05;;;;;;;;;;4864635;29;20061;-81
2022/01/19 14:01:13;;;;;;;6.25;5.07;;;;;;;;;;4866803;29;20862;-80
2022/01/19 14:03:55;;;;;;;8.10;5.60;;;;;;;;;;4836912;29;20543;-80
2022/01/19 14:06:25;;;;;;;8.77;6.18;;;;;;;;;;4843168;29;20484;-81
2022/01/19 14:09:03;;;;;;;12.23;6.15;;;;;;;;;;4854675;29;20060;-82
2022/01/19 14:11:32;;;;;;;7.28;4.82;;;;;;;;;;4852696;29;20060;-83
2022/01/19 14:14:02;;;;;;;7.07;5.28;;;;;;;;;;4840251;29;20068;-83
2022/01/19 14:16:35;;;;;;;10.50;5.55;;;;;;;;;;4850494;29;20060;-84
2022/01/19 14:19:13;;;;;;;12.57;4.20;;;;;;;;;;4856873;29;20472;-84
2022/01/19 14:21:55;;;;;;;8.98;7.53;;;;;;;;;;4850833;29;20069;-84
2022/01/19 14:24:23;;;;;;;7.97;6.45;;;;;;;;;;4830325;29;20057;-83
2022/01/19 14:26:52;;;;;;;14.40;5.80;;;;;;;;;;4838902;29;20054;-83
2022/01/19 14:29:21;;;;;;;9.73;5.22;;;;;;;;;;4838084;29;20401;-84
2022/01/19 14:31:50;;;;;;;12.80;5.57;;;;;;;;;;4852515;29;20061;-84
2022/01/19 14:34:34;;;;;;;6.38;4.90;;;;;;;;;;4837071;29;20054;-84
2022/01/19 14:37:19;;;;;;;5.50;4.75;;;;;;;;;;4836799;29;20061;-84
2022/01/19 14:40:08;;;;;;;5.65;4.53;;;;;;;;;;4852057;29;20049;-84
2022/01/19 14:42:37;;;;;;;5.03;4.07;;;;;;;;;;4837103;29;20732;-85
2022/01/19 14:45:22;;;;;;;6.95;4.75;;;;;;;;;;4837947;29;20395;-84
2022/01/19 14:47:52;;;;;;;8.15;5.65;;;;;;;;;;4837760;29;20556;-84
2022/01/19 14:50:28;;;;;;;8.30;6.10;;;;;;;;;;4837076;29;20062;-85
2022/01/19 14:52:56;;;;;;;6.03;4.25;;;;;;;;;;4837795;29;20050;-84
2022/01/19 14:55:26;;;;;;;6.30;3.88;;;;;;;;;;4839319;29;20058;-84
2022/01/19 14:57:55;;;;;;;4.13;3.60;;;;;;;;;;4874256;29;20049;-84
2022/01/19 15:00:25;;;;;;;4.03;3.63;;;;;;;;;;4875212;29;20064;-85
2022/01/19 15:02:59;;;;;;;5.40;3.58;;;;;;;;;;4858504;29;20075;-84
2022/01/19 15:05:29;;;;;;;4.18;3.47;;;;;;;;;;4874286;29;20060;-84
2022/01/19 15:07:58;;;;;;;6.15;4.95;;;;;;;;;;4873356;29;20059;-84
2022/01/19 15:10:27;;;;;;;5.90;3.60;;;;;;;;;;4874910;29;20053;-84
2022/01/19 15:12:56;;;;;;;4.38;3.97;;;;;;;;;;4872745;29;20427;-84
2022/01/19 15:15:29;;;;;;;4.22;3.83;;;;;;;;;;4874527;29;20049;-84
2022/01/19 15:17:59;;;;;;;5.72;3.15;;;;;;;;;;4875225;29;20056;-83
2022/01/19 15:20:28;;;;;;;5.38;4.13;;;;;;;;;;4856367;29;20062;-84
2022/01/19 15:23:00;;;;;;;7.28;5.97;;;;;;;;;;4855668;29;20053;-85
2022/01/19 15:25:28;;;;;;;;;;;;;;;;;;4856070;29;20053;-84
2022/01/19 15:27:56;;;;;;;5.18;3.80;;;;;;;;;;4853976;29;19938;-81
2022/01/19 15:30:24;;;;;;;4.45;3.65;;;;;;;;;;4855978;29;20472;-83
2022/01/19 15:32:52;;;;;;;4.00;2.97;;;;;;;;;;4868482;29;20064;-84
2022/01/19 15:35:20;;;;;;;4.50;3.35;;;;;;;;;;4853142;29;20057;-85
2022/01/19 15:37:48;;;;;;;4.32;3.47;;;;;;;;;;4847002;29;20058;-84
2022/01/19 15:40:18;;;;;;;7.47;4.35;;;;;;;;;;4839574;29;20049;-84
2022/01/19 15:43:01;;;;;;;7.90;5.40;;;;;;;;;;4869841;29;20053;-84
2022/01/19 15:45:30;;;;;;;5.88;3.97;;;;;;;;;;4853920;29;20053;-84
2022/01/19 15:47:59;;;;;;;6.53;5.82;;;;;;;;;;4853516;29;20053;-83
2022/01/19 15:50:28;;;;;;;7.90;5.15;;;;;;;;;;4844174;29;20512;-84
2022/01/19 15:52:56;;;;;;;6.75;3.88;;;;;;;;;;4853619;29;20056;-84
2022/01/19 15:55:25;;;;;;;7.53;5.28;;;;;;;;;;4842840;29;20054;-81
2022/01/19 15:58:15;;;;;;;5.38;4.03;;;;;;;;;;4849899;29;20764;-83
2022/01/19 16:00:44;;;;;;;7.22;4.45;;;;;;;;;;4857844;29;20045;-83
2022/01/19 16:03:12;;;;;;;5.65;3.80;;;;;;;;;;4847367;29;20519;-83
2022/01/19 16:05:43;;;;;;;5.88;4.70;;;;;;;;;;4853386;29;20064;-82
2022/01/19 16:08:11;;;;;;;5.78;3.95;;;;;;;;;;4852656;29;20411;-82
2022/01/19 16:10:40;;;;;;;4.53;3.22;;;;;;;;;;4848366;29;20061;-81
2022/01/19 16:13:08;;;;;;;6.28;3.58;;;;;;;;;;4835608;29;20091;-80
2022/01/19 16:15:38;;;;;;;6.93;4.88;;;;;;;;;;4861573;29;20124;-81
2022/01/19 16:18:08;;;;;;;7.53;5.70;;;;;;;;;;4842594;29;20066;-80
2022/01/19 16:20:36;;;;;;;9.65;6.00;;;;;;;;;;4847141;29;20057;-80
2022/01/19 16:26:09;;;;;;;5.07;3.67;;;;;;;;;;4853162;29;20061;-81
2022/01/19 16:28:43;;;;;;;6.53;5.30;;;;;;;;;;4834273;29;20060;-79
2022/01/19 16:31:16;;;;;;;19.13;6.25;;;;;;;;;;4835532;29;20496;-79
2022/01/19 16:33:50;;;;;;;6.93;5.82;;;;;;;;;;4834411;29;20053;-79